Time;durP1;ratioP1;P1;durP2;ratioP2;P2;SDS_P1;SDS_P2;PMS_P1;PMS_P2;Temp;Humidity;BMP_temperature;BMP_pressure;BME280_temperature;BME280_humidity;BME280_pressure;Samples;Min_cycle;Max_cycle;Signal;HPM_P1;HPM_P2
2022/02/22 00:00:28;;;;;;;3.08;1.80;;;;;;;2.91;95.26;97860.38;4194658;28;20448;-72
2022/02/22 00:02:28;;;;;;;5.10;1.67;;;;;;;2.87;96.08;97849.31;4187833;28;20060;-72
2022/02/22 00:04:33;;;;;;;3.95;1.50;;;;;;;2.86;96.77;97864.13;4186326;28;20036;-72
2022/02/22 00:06:33;;;;;;;7.60;1.67;;;;;;;2.95;95.37;97856.59;4185811;28;20040;-72
2022/02/22 00:08:34;;;;;;;5.60;1.85;;;;;;;2.88;96.09;97844.66;4186201;28;20295;-72
2022/02/22 00:10:34;;;;;;;6.00;2.35;;;;;;;2.88;96.29;97858.31;4194507;28;20310;-72
2022/02/22 00:12:35;;;;;;;3.90;1.30;;;;;;;2.90;96.20;97865.03;4193172;28;20389;-72
2022/02/22 00:14:36;;;;;;;4.38;1.60;;;;;;;2.96;96.03;97862.84;4186389;28;20175;-72
2022/02/22 00:16:36;;;;;;;6.68;1.50;;;;;;;2.97;96.40;97869.91;4186008;28;20039;-72
2022/02/22 00:18:36;;;;;;;3.22;1.48;;;;;;;2.98;96.31;97880.53;4186281;28;20123;-72
2022/02/22 00:20:37;;;;;;;3.92;1.20;;;;;;;2.93;97.38;97885.41;4192160;28;20381;-72
2022/02/22 00:22:38;;;;;;;7.68;1.48;;;;;;;2.90;98.27;97894.31;4199099;28;20428;-72
2022/02/22 00:24:38;;;;;;;2.63;1.35;;;;;;;2.91;98.92;97887.69;4185829;28;20388;-72
2022/02/22 00:26:39;;;;;;;8.32;1.70;;;;;;;2.95;98.48;97896.78;4185669;28;20040;-72
2022/02/22 00:28:39;;;;;;;3.67;1.83;;;;;;;2.96;98.29;97890.97;4186551;28;20322;-72
2022/02/22 00:30:40;;;;;;;5.20;1.50;;;;;;;2.93;98.18;97897.13;4186359;28;20036;-72
2022/02/22 00:32:40;;;;;;;4.43;1.35;;;;;;;2.84;99.13;97898.41;4190440;28;20044;-72
2022/02/22 00:34:41;;;;;;;3.08;1.10;;;;;;;2.93;98.99;97896.34;4194997;28;20128;-72
2022/02/22 00:36:42;;;;;;;5.63;1.55;;;;;;;2.92;98.44;97892.81;4190943;28;20505;-72
2022/02/22 00:38:42;;;;;;;4.05;1.70;;;;;;;2.95;98.44;97894.84;4187643;28;20434;-71
2022/02/22 00:40:43;;;;;;;5.30;2.30;;;;;;;2.91;98.56;97899.41;4189266;28;20037;-72
2022/02/22 00:42:43;;;;;;;2.30;1.30;;;;;;;2.87;98.69;97903.16;4195637;28;20735;-72
2022/02/22 00:44:44;;;;;;;3.95;1.40;;;;;;;2.93;97.99;97915.47;4188686;28;20198;-72
2022/02/22 00:46:46;;;;;;;5.75;1.45;;;;;;;2.89;97.98;97909.06;4185311;28;20048;-72
2022/02/22 00:48:46;;;;;;;3.22;1.20;;;;;;;2.88;98.43;97919.22;4191563;28;20047;-72
2022/02/22 00:50:47;;;;;;;3.30;1.50;;;;;;;2.93;97.75;97924.47;4204575;28;20044;-72
2022/02/22 00:52:47;;;;;;;1.60;1.00;;;;;;;2.95;97.76;97930.38;4199228;28;20519;-72
2022/02/22 00:54:48;;;;;;;8.57;1.90;;;;;;;2.95;97.52;97935.03;4188871;28;20052;-72
2022/02/22 00:56:48;;;;;;;4.90;1.50;;;;;;;2.98;96.81;97948.03;4189403;28;20045;-72
2022/02/22 00:58:48;;;;;;;2.38;1.20;;;;;;;3.00;96.45;97948.50;4189221;28;20396;-72
2022/02/22 01:00:49;;;;;;;5.63;1.35;;;;;;;3.00;96.01;97943.81;4189110;28;20648;-72
2022/02/22 01:02:49;;;;;;;3.53;1.20;;;;;;;3.02;95.71;97952.47;4189350;28;20281;-72
2022/02/22 01:04:50;;;;;;;5.30;1.42;;;;;;;3.05;95.52;97956.44;4189093;28;20472;-72
2022/02/22 01:06:50;;;;;;;5.07;1.40;;;;;;;3.02;95.70;97962.59;4188227;28;20044;-72
2022/02/22 01:08:51;;;;;;;8.02;1.83;;;;;;;3.06;95.52;97960.78;4189348;28;20048;-72
2022/02/22 01:10:51;;;;;;;4.07;1.52;;;;;;;3.06;94.81;97958.03;4193331;28;20040;-72
2022/02/22 01:12:51;;;;;;;17.95;2.08;;;;;;;3.05;95.27;97957.25;4200595;28;20084;-72
2022/02/22 01:14:52;;;;;;;4.35;1.38;;;;;;;3.12;93.92;97972.28;4203711;28;20059;-72
2022/02/22 01:16:52;;;;;;;5.72;1.60;;;;;;;3.19;93.00;97983.47;4198587;28;20174;-72
2022/02/22 01:18:52;;;;;;;3.65;1.25;;;;;;;3.13;93.86;97987.56;4200839;28;20036;-72
2022/02/22 01:20:53;;;;;;;7.60;1.70;;;;;;;3.02;94.51;97971.59;4189042;28;20459;-72
2022/02/22 01:22:56;;;;;;;4.40;1.10;;;;;;;3.06;93.87;97974.44;4188734;28;20156;-72
2022/02/22 01:24:57;;;;;;;5.72;1.25;;;;;;;3.05;94.58;97975.59;4189160;28;20059;-72
2022/02/22 01:26:57;;;;;;;5.00;1.50;;;;;;;3.10;93.55;97983.56;4188167;28;20084;-72
2022/02/22 01:28:58;;;;;;;10.68;2.10;;;;;;;3.07;94.05;97993.25;4189594;28;20389;-72
2022/02/22 01:30:58;;;;;;;6.85;2.15;;;;;;;3.04;93.98;97984.94;4205128;28;20241;-72
2022/02/22 01:32:59;;;;;;;9.23;1.73;;;;;;;3.04;94.02;98006.78;4189342;28;20041;-72
2022/02/22 01:34:59;;;;;;;6.68;1.30;;;;;;;3.01;93.48;98016.47;4188650;28;20044;-72
2022/02/22 01:37:00;;;;;;;4.18;1.45;;;;;;;3.00;93.99;98017.63;4188208;28;20623;-72
2022/02/22 01:39:00;;;;;;;2.25;1.17;;;;;;;3.02;93.53;98018.06;4188232;28;20422;-72
2022/02/22 01:41:01;;;;;;;7.25;1.35;;;;;;;3.01;93.52;98019.22;4188323;28;20044;-72
2022/02/22 01:43:01;;;;;;;6.85;1.73;;;;;;;3.01;93.67;98012.94;4190334;28;20051;-72
2022/02/22 01:45:03;;;;;;;5.65;2.40;;;;;;;3.09;92.32;98017.50;4191087;28;20043;-72
2022/02/22 01:47:04;;;;;;;13.23;2.13;;;;;;;3.14;92.28;98021.94;4193777;28;20067;-72
2022/02/22 01:49:05;;;;;;;5.75;1.80;;;;;;;3.15;92.05;98038.03;4189508;28;20089;-72
2022/02/22 01:51:06;;;;;;;5.88;1.52;;;;;;;3.16;91.44;98033.34;4197383;28;20488;-72
2022/02/22 01:53:09;;;;;;;5.47;1.38;;;;;;;3.17;91.75;98026.75;4203013;28;20047;-72
2022/02/22 01:55:10;;;;;;;9.57;1.70;;;;;;;3.24;91.06;98040.66;4190916;28;20052;-72
2022/02/22 01:57:11;;;;;;;5.13;1.92;;;;;;;3.13;92.03;98040.28;4190510;28;20049;-72
2022/02/22 01:59:12;;;;;;;4.25;1.20;;;;;;;3.11;93.73;98050.75;4204308;28;20574;-72
2022/02/22 02:01:13;;;;;;;5.80;1.52;;;;;;;3.05;94.95;98047.44;4194202;28;20036;-72
2022/02/22 02:03:14;;;;;;;4.95;1.90;;;;;;;2.94;95.55;98049.03;4188160;28;20114;-72
2022/02/22 02:05:14;;;;;;;6.63;1.52;;;;;;;3.01;94.19;98062.94;4187783;28;20388;-72
2022/02/22 02:07:15;;;;;;;8.25;1.73;;;;;;;2.93;95.22;98073.97;4187715;28;20110;-72
2022/02/22 02:09:15;;;;;;;9.63;1.85;;;;;;;2.92;94.38;98070.44;4187997;28;20040;-72
2022/02/22 02:11:16;;;;;;;4.82;1.80;;;;;;;2.89;94.58;98065.63;4188531;28;20159;-72
2022/02/22 02:13:16;;;;;;;6.93;1.58;;;;;;;2.92;94.37;98078.63;4204306;28;20052;-72
2022/02/22 02:15:16;;;;;;;7.25;1.40;;;;;;;2.93;93.59;98082.97;4202257;28;20313;-72
2022/02/22 02:17:17;;;;;;;8.35;2.35;;;;;;;3.01;92.13;98084.00;4198509;28;20063;-72
2022/02/22 02:19:18;;;;;;;6.40;1.63;;;;;;;3.01;91.88;98095.72;4188266;28;20090;-72
2022/02/22 02:21:19;;;;;;;6.05;2.58;;;;;;;3.03;92.23;98122.72;4187784;28;20037;-72
2022/02/22 02:23:19;;;;;;;5.43;2.20;;;;;;;2.99;93.37;98140.94;4187876;28;20567;-72
2022/02/22 02:25:20;;;;;;;7.63;2.58;;;;;;;2.72;91.94;98166.88;4187620;28;20044;-72
2022/02/22 02:27:20;;;;;;;11.80;1.83;;;;;;;2.25;95.11;98140.56;4187646;28;20036;-72
2022/02/22 02:29:26;;;;;;;4.90;1.17;;;;;;;1.92;97.41;98137.72;4187819;28;20100;-71
2022/02/22 02:31:26;;;;;;;3.25;1.10;;;;;;;1.78;98.29;98145.31;4187615;28;20564;-72
2022/02/22 02:33:26;;;;;;;4.53;1.45;;;;;;;1.82;97.32;98145.47;4187488;28;20068;-72
2022/02/22 02:35:26;;;;;;;9.00;2.08;;;;;;;1.79;95.27;98140.66;4187618;28;20064;-71
2022/02/22 02:37:27;;;;;;;5.97;2.85;;;;;;;1.86;93.90;98149.94;4194097;28;20450;-71
2022/02/22 02:39:27;;;;;;;6.20;1.50;;;;;;;1.88;94.13;98142.22;4202411;28;20090;-72
2022/02/22 02:41:28;;;;;;;11.68;1.80;;;;;;;1.90;93.42;98148.16;4204028;28;20052;-72
2022/02/22 02:43:29;;;;;;;10.35;1.40;;;;;;;1.92;93.10;98158.75;4192241;28;20431;-72
2022/02/22 02:45:29;;;;;;;11.27;1.90;;;;;;;1.91;90.97;98162.59;4187487;28;20041;-72
2022/02/22 02:47:29;;;;;;;11.15;2.17;;;;;;;1.87;91.72;98167.91;4190516;28;20039;-72
2022/02/22 02:49:30;;;;;;;8.82;1.90;;;;;;;1.87;90.85;98158.94;4193425;28;20496;-72
2022/02/22 02:51:30;;;;;;;9.75;1.85;;;;;;;1.79;91.35;98174.19;4187345;28;20044;-72
2022/02/22 02:53:31;;;;;;;13.15;2.30;;;;;;;1.83;89.62;98158.00;4187205;28;20477;-72
2022/02/22 02:55:31;;;;;;;8.25;2.50;;;;;;;1.81;89.99;98177.41;4187768;28;20051;-72
2022/02/22 02:57:31;;;;;;;9.15;2.03;;;;;;;1.79;90.42;98176.94;4186771;28;20041;-72
2022/02/22 02:59:32;;;;;;;8.18;1.65;;;;;;;1.72;90.20;98171.19;4187109;28;20126;-72
2022/02/22 03:01:33;;;;;;;7.70;2.25;;;;;;;1.76;89.58;98174.06;4193568;28;20048;-72
2022/02/22 03:03:34;;;;;;;9.83;2.33;;;;;;;1.73;90.13;98180.16;4192302;28;20048;-72
2022/02/22 03:05:34;;;;;;;11.13;2.17;;;;;;;1.63;89.98;98176.66;4202014;28;20044;-72
2022/02/22 03:07:35;;;;;;;5.72;1.75;;;;;;;1.66;89.43;98197.06;4201815;28;20040;-72
2022/02/22 03:09:36;;;;;;;9.63;2.42;;;;;;;1.64;90.15;98202.00;4192667;28;20068;-72
2022/02/22 03:11:37;;;;;;;7.35;1.77;;;;;;;1.57;90.43;98202.53;4186935;28;20032;-72
2022/02/22 03:13:38;;;;;;;9.45;2.17;;;;;;;1.60;89.15;98211.97;4187269;28;20044;-72
2022/02/22 03:15:39;;;;;;;5.25;1.98;;;;;;;1.60;88.92;98211.97;4187527;28;20484;-72
2022/02/22 03:17:40;;;;;;;12.98;2.42;;;;;;;1.59;88.82;98216.63;4186310;28;20051;-72
2022/02/22 03:19:40;;;;;;;10.25;1.90;;;;;;;1.56;88.85;98214.53;4186781;28;20040;-72
2022/02/22 03:21:41;;;;;;;8.85;2.03;;;;;;;1.47;88.39;98221.94;4195278;28;20455;-72
2022/02/22 03:23:42;;;;;;;6.25;1.85;;;;;;;1.46;88.71;98214.09;4196187;28;20051;-72
2022/02/22 03:25:42;;;;;;;9.35;1.90;;;;;;;1.40;89.33;98238.00;4187092;28;20048;-72
2022/02/22 03:27:43;;;;;;;7.25;2.03;;;;;;;1.36;89.82;98235.13;4186158;28;20121;-72
2022/02/22 03:29:43;;;;;;;14.48;2.45;;;;;;;1.37;89.36;98238.66;4185628;28;20115;-72
2022/02/22 03:31:43;;;;;;;6.60;2.13;;;;;;;1.38;89.50;98243.78;4190023;28;20123;-72
2022/02/22 03:33:44;;;;;;;11.70;2.38;;;;;;;1.38;89.71;98240.25;4186564;28;20044;-72
2022/02/22 03:35:44;;;;;;;10.55;2.13;;;;;;;1.35;90.13;98247.16;4187386;28;20037;-72
2022/02/22 03:37:45;;;;;;;8.38;2.10;;;;;;;1.43;89.44;98248.28;4186220;28;20044;-72
2022/02/22 03:39:45;;;;;;;11.85;1.92;;;;;;;1.41;90.29;98253.25;4186765;28;20041;-72
2022/02/22 03:41:45;;;;;;;10.07;3.53;;;;;;;1.45;89.59;98239.75;4186999;28;20051;-72
2022/02/22 03:43:46;;;;;;;12.27;2.83;;;;;;;1.54;89.35;98262.34;4187108;28;20047;-72
2022/02/22 03:45:46;;;;;;;9.20;2.30;;;;;;;1.62;88.42;98258.81;4192580;28;20343;-72
2022/02/22 03:47:46;;;;;;;14.32;2.95;;;;;;;1.58;89.25;98260.59;4186081;28;20463;-72
2022/02/22 03:49:47;;;;;;;11.98;3.25;;;;;;;1.60;89.44;98261.06;4187017;28;20516;-72
2022/02/22 03:51:47;;;;;;;13.82;2.55;;;;;;;1.58;89.81;98280.50;4186675;28;20307;-72
2022/02/22 03:53:47;;;;;;;13.43;3.45;;;;;;;1.64;89.25;98272.91;4186608;28;20396;-72
2022/02/22 03:55:48;;;;;;;13.05;2.63;;;;;;;1.60;91.12;98271.97;4187016;28;20331;-72
2022/02/22 03:57:49;;;;;;;10.68;2.67;;;;;;;1.59;90.09;98259.47;4185977;28;20044;-71
2022/02/22 03:59:49;;;;;;;13.52;3.00;;;;;;;1.59;91.08;98270.38;4186649;28;20036;-72
2022/02/22 04:01:53;;;;;;;12.15;3.13;;;;;;;1.63;90.65;98269.38;4186512;28;20112;-72
2022/02/22 04:03:53;;;;;;;13.25;2.80;;;;;;;1.63;91.36;98277.56;4186549;28;20056;-72
2022/02/22 04:05:54;;;;;;;16.38;2.83;;;;;;;1.62;91.28;98269.72;4186745;28;20048;-72
2022/02/22 04:07:54;;;;;;;14.50;3.45;;;;;;;1.67;91.65;98273.09;4185463;28;20369;-72
2022/02/22 04:09:54;;;;;;;9.27;2.60;;;;;;;1.64;92.05;98284.63;4190997;28;20380;-72
2022/02/22 04:11:55;;;;;;;20.08;3.30;;;;;;;1.70;92.46;98288.00;4195584;28;20488;-72
2022/02/22 04:13:55;;;;;;;11.15;3.22;;;;;;;1.69;91.58;98281.75;4187955;28;20048;-72
2022/02/22 04:15:56;;;;;;;23.17;3.45;;;;;;;1.66;92.55;98284.31;4196451;28;20151;-72
2022/02/22 04:17:56;;;;;;;19.75;3.72;;;;;;;1.70;91.89;98290.72;4185302;28;20135;-72
2022/02/22 04:19:57;;;;;;;15.30;2.90;;;;;;;1.72;92.13;98293.91;4187631;28;20052;-71
2022/02/22 04:21:57;;;;;;;17.92;3.25;;;;;;;1.70;91.99;98288.00;4198736;28;20108;-72
2022/02/22 04:23:57;;;;;;;21.23;3.17;;;;;;;1.77;90.27;98310.13;4191479;28;20075;-72
2022/02/22 04:25:57;;;;;;;15.68;3.53;;;;;;;1.83;90.00;98306.09;4191659;28;20476;-72
2022/02/22 04:27:58;;;;;;;15.75;3.25;;;;;;;1.79;89.71;98307.88;4191979;28;20142;-72
2022/02/22 04:29:58;;;;;;;16.85;4.18;;;;;;;1.80;90.18;98319.56;4193468;28;20044;-72
2022/02/22 04:32:00;;;;;;;20.27;3.47;;;;;;;1.89;88.35;98325.81;4192424;28;20179;-72
2022/02/22 04:34:01;;;;;;;14.82;3.35;;;;;;;1.86;89.53;98326.47;4192370;28;20093;-73
2022/02/22 04:36:01;;;;;;;16.08;3.08;;;;;;;1.88;90.32;98338.66;4193076;28;20048;-72
2022/02/22 04:38:02;;;;;;;11.30;2.92;;;;;;;1.81;89.91;98351.97;4191735;28;20135;-72
2022/02/22 04:40:04;;;;;;;9.30;2.80;;;;;;;1.80;91.24;98361.28;4192725;28;20472;-72
2022/02/22 04:42:04;;;;;;;20.25;3.55;;;;;;;1.73;93.49;98382.81;4193443;28;20115;-72
2022/02/22 04:44:05;;;;;;;16.00;4.05;;;;;;;1.51;95.28;98370.16;4194076;28;20066;-72
2022/02/22 04:46:06;;;;;;;13.90;3.70;;;;;;;1.37;97.71;98364.84;4192054;28;20035;-72
2022/02/22 04:48:06;;;;;;;13.13;4.47;;;;;;;1.23;98.82;98361.47;4190209;28;20423;-72
2022/02/22 04:50:07;;;;;;;17.42;3.78;;;;;;;1.16;100.00;98365.78;4194924;28;20377;-72
2022/02/22 04:52:09;;;;;;;15.07;3.42;;;;;;;1.17;100.00;98365.50;4194079;28;20023;-71
2022/02/22 04:54:10;;;;;;;15.93;3.40;;;;;;;1.11;100.00;98383.09;4193330;28;20472;-71
2022/02/22 04:56:10;;;;;;;13.50;3.58;;;;;;;1.16;100.00;98372.06;4195185;28;20025;-71
2022/02/22 04:58:11;;;;;;;17.13;3.20;;;;;;;1.13;100.00;98378.13;4191254;28;20056;-71
2022/02/22 05:00:13;;;;;;;19.27;4.03;;;;;;;1.13;100.00;98399.94;4192359;28;20069;-72
2022/02/22 05:02:13;;;;;;;;;;;;;;;1.13;100.00;98425.25;4193216;28;20484;-72
2022/02/22 05:04:14;;;;;;;3.28;1.70;;;;;;;0.87;100.00;98402.59;4191347;28;19974;-72
2022/02/22 05:06:14;;;;;;;10.18;2.97;;;;;;;0.82;100.00;98395.38;4191439;28;20452;-72
2022/02/22 05:08:18;;;;;;;10.77;2.58;;;;;;;0.79;100.00;98395.22;4192365;28;20402;-72
2022/02/22 05:10:18;;;;;;;9.60;2.22;;;;;;;0.80;99.58;98413.94;4191486;28;20070;-72
2022/02/22 05:12:20;;;;;;;8.45;3.53;;;;;;;0.87;98.09;98409.97;4192910;28;20028;-72
2022/02/22 05:14:20;;;;;;;6.63;1.98;;;;;;;0.84;97.22;98406.78;4187559;28;20051;-72
2022/02/22 05:16:20;;;;;;;8.68;2.72;;;;;;;0.85;97.89;98410.28;4188214;28;20476;-72
2022/02/22 05:18:20;;;;;;;7.50;1.80;;;;;;;0.94;97.34;98415.75;4188043;28;20044;-72
2022/02/22 05:20:21;;;;;;;5.90;1.80;;;;;;;0.87;99.15;98418.94;4195614;28;20045;-72
2022/02/22 05:22:21;;;;;;;11.75;2.55;;;;;;;0.87;99.20;98410.78;4192952;28;20132;-72
2022/02/22 05:24:21;;;;;;;4.22;1.65;;;;;;;0.86;99.14;98405.66;4190118;28;20052;-72
2022/02/22 05:26:22;;;;;;;10.93;1.85;;;;;;;0.81;99.60;98421.00;4189126;28;20037;-72
2022/02/22 05:28:23;;;;;;;10.80;2.22;;;;;;;0.80;100.00;98430.28;4188106;28;20044;-72
2022/02/22 05:30:23;;;;;;;8.38;2.40;;;;;;;0.77;100.00;98430.94;4187954;28;20464;-72
2022/02/22 05:32:23;;;;;;;8.35;1.75;;;;;;;0.73;100.00;98438.09;4188605;28;20430;-72
2022/02/22 05:34:24;;;;;;;8.60;2.17;;;;;;;0.78;100.00;98432.53;4188580;28;20136;-72
2022/02/22 05:36:24;;;;;;;5.60;1.80;;;;;;;0.80;100.00;98441.19;4188379;28;20071;-72
2022/02/22 05:38:24;;;;;;;9.82;1.95;;;;;;;0.80;100.00;98434.94;4195810;28;20047;-72
2022/02/22 05:40:25;;;;;;;7.90;2.15;;;;;;;0.85;100.00;98437.53;4200647;28;20048;-72
2022/02/22 05:42:26;;;;;;;5.68;1.80;;;;;;;0.92;100.00;98437.88;4204300;28;20088;-72
2022/02/22 05:44:26;;;;;;;11.02;2.38;;;;;;;0.94;100.00;98448.44;4187855;28;20036;-72
2022/02/22 05:46:26;;;;;;;7.97;2.45;;;;;;;1.00;99.51;98450.72;4188837;28;20159;-72
2022/02/22 05:48:27;;;;;;;5.55;2.42;;;;;;;1.03;98.40;98438.38;4187838;28;20473;-72
2022/02/22 05:50:27;;;;;;;13.07;2.75;;;;;;;1.03;98.72;98432.94;4188441;28;20048;-72
2022/02/22 05:52:28;;;;;;;13.07;2.05;;;;;;;1.03;97.76;98450.09;4188410;28;20033;-72
2022/02/22 05:54:28;;;;;;;12.02;2.72;;;;;;;1.00;96.89;98464.34;4188387;28;20274;-72
2022/02/22 05:56:28;;;;;;;17.02;2.90;;;;;;;1.05;95.94;98449.75;4202412;28;20222;-72
2022/02/22 05:58:29;;;;;;;16.63;3.20;;;;;;;0.98;96.27;98458.38;4202157;28;20472;-72
2022/02/22 06:00:29;;;;;;;15.43;3.28;;;;;;;1.01;95.83;98449.59;4114814;28;20056;-71
2022/02/22 06:02:30;;;;;;;7.45;2.80;;;;;;;1.00;96.25;98475.25;4200371;28;20098;-72
2022/02/22 06:04:30;;;;;;;14.88;2.83;;;;;;;0.91;98.24;98462.69;4190904;28;20051;-72
2022/02/22 06:06:31;;;;;;;16.70;3.53;;;;;;;0.89;98.37;98471.19;4188093;28;20043;-71
2022/02/22 06:08:31;;;;;;;14.20;3.58;;;;;;;0.82;98.40;98482.53;4187626;28;20056;-72
2022/02/22 06:10:31;;;;;;;8.13;2.13;;;;;;;0.78;98.23;98484.28;4190407;28;20456;-72
2022/02/22 06:12:32;;;;;;;13.82;3.38;;;;;;;0.78;97.55;98491.66;4202606;28;20032;-72
2022/02/22 06:14:33;;;;;;;10.70;2.92;;;;;;;0.78;96.74;98492.44;4193151;28;20041;-72
2022/02/22 06:16:34;;;;;;;8.52;2.60;;;;;;;0.84;96.55;98490.41;4187531;28;20051;-72
2022/02/22 06:18:34;;;;;;;13.30;3.78;;;;;;;0.83;96.24;98499.69;4191238;28;20031;-72
2022/02/22 06:20:35;;;;;;;10.75;3.25;;;;;;;0.80;96.55;98506.56;4203614;28;20610;-72
2022/02/22 06:22:36;;;;;;;16.90;3.08;;;;;;;0.75;97.12;98501.25;4202075;28;20052;-72
2022/02/22 06:24:36;;;;;;;9.50;2.88;;;;;;;0.69;97.51;98513.41;4191870;28;20076;-72
2022/02/22 06:26:36;;;;;;;11.52;3.45;;;;;;;0.68;97.48;98514.50;4187303;28;20123;-72
2022/02/22 06:28:37;;;;;;;13.30;3.67;;;;;;;0.69;97.65;98526.22;4187640;28;20044;-72
2022/02/22 06:30:37;;;;;;;7.90;2.13;;;;;;;0.70;98.25;98527.81;4187421;28;20068;-72
2022/02/22 06:32:38;;;;;;;14.27;2.90;;;;;;;0.72;98.33;98531.03;4189588;28;20420;-72
2022/02/22 06:34:38;;;;;;;19.20;3.20;;;;;;;0.73;97.90;98521.72;4192205;28;20432;-72
2022/02/22 06:36:39;;;;;;;10.32;2.95;;;;;;;0.76;97.42;98534.75;4186266;28;20076;-72
2022/02/22 06:38:39;;;;;;;11.35;2.63;;;;;;;0.75;97.48;98542.13;4187687;28;20102;-72
2022/02/22 06:40:39;;;;;;;12.73;3.03;;;;;;;0.77;97.63;98544.53;4201991;28;20048;-72
2022/02/22 06:42:40;;;;;;;12.13;2.63;;;;;;;0.76;97.74;98554.59;4193791;28;20335;-72
2022/02/22 06:44:40;;;;;;;12.07;3.05;;;;;;;0.76;97.93;98543.72;4187327;28;20070;-72
2022/02/22 06:46:40;;;;;;;14.60;3.15;;;;;;;0.75;97.78;98552.19;4186490;28;20488;-72
2022/02/22 06:48:41;;;;;;;14.13;3.80;;;;;;;0.75;98.04;98558.44;4187683;28;20457;-72
2022/02/22 06:50:42;;;;;;;12.98;3.10;;;;;;;0.74;97.81;98542.41;4187735;28;20070;-72
2022/02/22 06:52:43;;;;;;;17.23;4.97;;;;;;;0.72;98.31;98547.38;4187608;28;20037;-72
2022/02/22 06:54:43;;;;;;;16.80;4.30;;;;;;;0.73;97.40;98546.25;4187623;28;20399;-72
2022/02/22 06:56:44;;;;;;;14.13;3.95;;;;;;;0.76;97.32;98551.09;4187043;28;20137;-72
2022/02/22 06:58:45;;;;;;;18.40;3.90;;;;;;;0.80;96.71;98554.78;4187081;28;20115;-72
2022/02/22 07:00:48;;;;;;;13.35;2.90;;;;;;;0.79;96.07;98558.63;4197339;28;20279;-72
2022/02/22 07:02:49;;;;;;;17.17;3.15;;;;;;;0.83;96.71;98565.06;4203579;28;20422;-72
2022/02/22 07:04:49;;;;;;;15.18;4.15;;;;;;;0.81;96.13;98568.06;4200912;28;20036;-72
2022/02/22 07:06:50;;;;;;;9.20;2.88;;;;;;;0.82;96.25;98577.84;4201123;28;20614;-72
2022/02/22 07:08:50;;;;;;;10.15;2.90;;;;;;;0.79;96.02;98578.50;4189175;28;20039;-72
2022/02/22 07:10:51;;;;;;;16.15;4.40;;;;;;;0.83;95.49;98586.84;4189846;28;20498;-72
2022/02/22 07:21:41;;;;;;;11.95;3.70;;;;;;;1.01;91.98;98604.91;4188123;28;20102;-72
2022/02/22 07:23:42;;;;;;;16.20;3.80;;;;;;;0.98;92.46;98600.06;4186664;28;20044;-72
2022/02/22 07:25:42;;;;;;;20.63;3.80;;;;;;;1.02;91.89;98609.22;4186925;28;20357;-72
2022/02/22 07:27:44;;;;;;;9.77;3.05;;;;;;;1.14;90.83;98608.66;4185944;28;20036;-72
2022/02/22 07:29:45;;;;;;;13.38;3.70;;;;;;;1.24;90.36;98607.56;4186647;28;20052;-72
2022/02/22 07:31:45;;;;;;;12.93;3.20;;;;;;;1.33;90.99;98611.97;4196146;28;20511;-72
2022/02/22 07:33:45;;;;;;;15.32;3.95;;;;;;;1.43;91.44;98612.81;4198174;28;20048;-73
2022/02/22 07:35:46;;;;;;;13.30;3.60;;;;;;;1.47;92.30;98611.84;4202341;28;20483;-72
2022/02/22 07:37:46;;;;;;;17.52;4.20;;;;;;;1.53;91.90;98616.03;4201726;28;20044;-72
2022/02/22 07:39:46;;;;;;;17.55;3.35;;;;;;;1.66;91.40;98625.25;4201006;28;20052;-72
2022/02/22 07:41:47;;;;;;;16.63;3.20;;;;;;;1.75;90.10;98625.28;4196392;28;20091;-72
2022/02/22 07:43:47;;;;;;;15.73;3.30;;;;;;;1.84;88.78;98626.91;4186630;28;20546;-72
2022/02/22 07:45:47;;;;;;;14.00;3.75;;;;;;;1.91;86.67;98631.91;4186773;28;20128;-72
2022/02/22 07:47:48;;;;;;;16.33;4.25;;;;;;;2.00;85.44;98631.91;4188533;28;20047;-72
2022/02/22 07:49:48;;;;;;;10.95;3.53;;;;;;;2.06;85.07;98638.81;4201233;28;20102;-72
2022/02/22 07:51:48;;;;;;;14.50;3.70;;;;;;;2.07;85.24;98638.53;4202788;28;20480;-72
2022/02/22 07:53:49;;;;;;;20.30;5.40;;;;;;;2.15;84.68;98640.47;4201352;28;20070;-72
2022/02/22 07:55:49;;;;;;;15.63;3.75;;;;;;;2.18;84.95;98647.19;4196663;28;20052;-72
2022/02/22 07:57:50;;;;;;;12.15;4.88;;;;;;;2.20;85.54;98640.28;4185434;28;20041;-72
2022/02/22 07:59:50;;;;;;;14.90;3.42;;;;;;;2.20;85.76;98653.94;4186121;28;20052;-72
2022/02/22 08:01:50;;;;;;;13.88;3.65;;;;;;;2.23;85.14;98652.50;4198167;28;20043;-72
2022/02/22 08:03:51;;;;;;;11.52;2.88;;;;;;;2.25;84.42;98656.53;4201105;28;20133;-72
2022/02/22 08:05:51;;;;;;;10.02;3.22;;;;;;;2.33;83.84;98662.34;4201060;28;20378;-72
2022/02/22 08:07:51;;;;;;;8.85;2.72;;;;;;;2.40;84.89;98665.38;4199680;28;20517;-72
2022/02/22 08:09:52;;;;;;;17.02;5.28;;;;;;;2.49;85.70;98671.66;4191180;28;20120;-73
2022/02/22 08:11:53;;;;;;;11.63;4.13;;;;;;;2.52;85.77;98671.81;4186731;28;20096;-72
2022/02/22 08:13:54;;;;;;;8.27;3.33;;;;;;;2.65;85.48;98680.16;4188164;28;20045;-72
2022/02/22 08:15:54;;;;;;;10.63;3.03;;;;;;;2.74;84.72;98681.00;4195836;28;20521;-72
2022/02/22 08:17:54;;;;;;;7.57;3.22;;;;;;;2.74;84.32;98687.25;4198706;28;20408;-72
2022/02/22 08:19:55;;;;;;;10.82;3.10;;;;;;;2.73;84.77;98688.41;4201440;28;20044;-72
2022/02/22 08:21:56;;;;;;;7.78;2.65;;;;;;;2.75;83.99;98679.88;4191405;28;20127;-72
2022/02/22 08:23:56;;;;;;;12.70;3.35;;;;;;;2.73;84.51;98684.81;4201317;28;20449;-72
2022/02/22 08:25:59;;;;;;;16.67;3.90;;;;;;;2.74;84.13;98689.19;4201734;28;20471;-72
2022/02/22 08:27:59;;;;;;;15.45;3.30;;;;;;;2.79;83.22;98695.28;4191319;28;20056;-71
2022/02/22 08:29:59;;;;;;;9.88;2.50;;;;;;;2.71;82.42;98678.88;4191601;28;20082;-72
2022/02/22 08:32:00;;;;;;;11.82;2.45;;;;;;;2.75;83.40;98688.06;4187902;28;20565;-72
2022/02/22 08:34:02;;;;;;;12.95;2.63;;;;;;;2.89;83.98;98693.34;4186229;28;20135;-72
2022/02/22 08:36:03;;;;;;;6.95;2.63;;;;;;;2.87;83.13;98690.94;4186092;28;20122;-72
2022/02/22 08:38:04;;;;;;;10.35;2.33;;;;;;;2.84;82.11;98693.53;4196391;28;20032;-72
2022/02/22 08:40:05;;;;;;;5.53;2.13;;;;;;;2.95;81.07;98694.81;4200542;28;20479;-72
2022/02/22 08:42:09;;;;;;;7.45;2.05;;;;;;;3.07;80.45;98697.69;4201443;28;20431;-73
2022/02/22 08:44:13;;;;;;;9.07;2.30;;;;;;;3.14;80.19;98692.53;4201401;28;20109;-72
2022/02/22 08:46:13;;;;;;;9.27;2.40;;;;;;;3.22;79.01;98701.84;4185406;28;20025;-72
2022/02/22 08:48:14;;;;;;;15.85;3.20;;;;;;;3.27;78.90;98688.81;4185334;28;20029;-72
2022/02/22 08:50:14;;;;;;;9.88;2.97;;;;;;;3.38;78.87;98697.47;4185965;28;20040;-72
2022/02/22 08:52:17;;;;;;;13.82;5.35;;;;;;;3.38;77.43;98692.81;4186154;28;20443;-72
2022/02/22 08:54:17;;;;;;;23.80;8.23;;;;;;;3.35;77.57;98700.88;4185632;28;20052;-72
2022/02/22 08:56:18;;;;;;;13.60;5.75;;;;;;;3.30;77.49;98695.56;4186175;28;20821;-72
2022/02/22 08:58:18;;;;;;;21.80;4.85;;;;;;;3.19;75.54;98706.03;4185473;28;20084;-72
2022/02/22 09:00:19;;;;;;;18.90;6.38;;;;;;;3.27;76.19;98698.94;4186099;28;20152;-72
2022/02/22 09:02:19;;;;;;;17.05;5.28;;;;;;;3.23;78.74;98708.94;4186032;28;20099;-72
2022/02/22 09:04:20;;;;;;;17.10;3.53;;;;;;;3.20;76.70;98702.19;4185889;28;20037;-71
2022/02/22 09:06:20;;;;;;;12.38;3.05;;;;;;;3.32;75.53;98715.19;4185918;28;20438;-72
2022/02/22 09:08:21;;;;;;;6.63;2.42;;;;;;;3.36;75.76;98716.16;4184803;28;20048;-72
2022/02/22 09:10:22;;;;;;;9.73;2.70;;;;;;;3.37;76.51;98713.09;4189096;28;20276;-72
2022/02/22 09:12:22;;;;;;;8.65;2.78;;;;;;;3.48;76.72;98723.69;4188924;28;20043;-72
2022/02/22 09:14:23;;;;;;;16.20;3.47;;;;;;;3.46;74.65;98726.75;4198262;28;20484;-72
2022/02/22 09:16:24;;;;;;;16.35;3.90;;;;;;;3.54;74.69;98725.13;4203891;28;20395;-72
2022/02/22 09:18:24;;;;;;;16.40;4.10;;;;;;;3.60;75.07;98726.56;4203018;28;20036;-73
2022/02/22 09:20:24;;;;;;;19.08;3.35;;;;;;;3.48;74.61;98726.44;4204290;28;20043;-72
2022/02/22 09:22:25;;;;;;;8.07;2.20;;;;;;;3.46;74.35;98724.00;4192519;28;20950;-72
2022/02/22 09:24:25;;;;;;;7.47;2.42;;;;;;;3.50;75.40;98732.38;4188774;28;20396;-72
2022/02/22 09:26:25;;;;;;;15.93;2.90;;;;;;;3.58;76.18;98717.88;4190182;28;20040;-72
2022/02/22 09:28:26;;;;;;;13.55;2.80;;;;;;;3.62;74.47;98732.50;4202321;28;20036;-72
2022/02/22 09:30:28;;;;;;;11.25;2.90;;;;;;;3.65;74.64;98734.59;4204087;28;20057;-72
2022/02/22 09:32:28;;;;;;;15.77;5.70;;;;;;;3.69;76.33;98732.00;4203863;28;20028;-72
2022/02/22 09:34:29;;;;;;;40.10;12.32;;;;;;;3.69;77.28;98741.00;4202421;28;20051;-72
2022/02/22 09:36:29;;;;;;;14.13;5.63;;;;;;;3.59;78.51;98735.91;4203758;28;20055;-72
2022/02/22 09:38:30;;;;;;;9.65;3.00;;;;;;;3.57;78.57;98735.44;4186637;28;20041;-72